Time;durP1;ratioP1;P1;durP2;ratioP2;P2;SDS_P1;SDS_P2;PMS_P1;PMS_P2;Temp;Humidity;BMP_temperature;BMP_pressure;BME280_temperature;BME280_humidity;BME280_pressure;Samples;Min_cycle;Max_cycle;Signal;HPM_P1;HPM_P2
2022/03/26 00:03:06;;;;;;;8.87;3.53;;;7.20;58.50;;;5.43;54.65;101205.00;10275776;28;96651;-78
2022/03/26 00:08:11;;;;;;;7.23;3.47;;;7.10;58.90;;;5.45;54.74;101200.44;10232844;28;96622;-77
2022/03/26 00:13:15;;;;;;;6.87;3.20;;;7.10;58.30;;;5.51;54.50;101202.63;10287464;28;97663;-78
2022/03/26 00:18:18;;;;;;;6.20;3.00;;;7.10;58.50;;;5.58;54.60;101206.53;10267613;28;96629;-78
2022/03/26 00:23:21;;;;;;;6.77;3.53;;;7.10;58.90;;;5.64;54.92;101203.47;10270350;28;96512;-78
2022/03/26 00:28:25;;;;;;;7.73;4.30;;;7.20;59.40;;;5.71;54.65;101200.38;10251586;28;96563;-78
2022/03/26 00:33:30;;;;;;;10.77;5.03;;;7.20;58.80;;;5.72;54.96;101194.16;10245933;28;96598;-78
2022/03/26 00:38:33;;;;;;;6.00;3.23;;;7.30;59.50;;;5.71;54.69;101195.94;10239753;28;96801;-78
2022/03/26 00:43:36;;;;;;;12.63;5.13;;;7.30;59.50;;;5.66;55.07;101194.59;10259109;28;96398;-78
2022/03/26 00:48:39;;;;;;;12.93;5.60;;;7.20;58.80;;;5.54;55.89;101191.06;10269591;28;97242;-78
2022/03/26 00:53:43;;;;;;;12.97;5.10;;;7.20;59.80;;;5.41;55.82;101193.72;10245620;28;96572;-78
2022/03/26 00:58:46;;;;;;;14.40;5.70;;;7.10;59.90;;;5.24;55.74;101192.28;10242356;28;96546;-78
2022/03/26 01:03:49;;;;;;;12.07;5.47;;;6.90;59.50;;;5.12;56.33;101193.16;10253341;28;96581;-78
2022/03/26 01:08:52;;;;;;;7.20;3.97;;;6.80;60.40;;;5.03;56.83;101205.19;10257105;28;96561;-78
2022/03/26 01:13:56;;;;;;;11.83;4.87;;;6.70;60.80;;;4.92;56.95;101197.22;10255106;28;96506;-78
2022/03/26 01:18:59;;;;;;;9.03;4.57;;;6.60;60.70;;;4.84;57.45;101186.34;10250913;28;96660;-77
2022/03/26 01:24:02;;;;;;;8.27;4.03;;;6.50;61.70;;;4.78;57.43;101187.63;10262672;28;96488;-77
2022/03/26 01:29:05;;;;;;;8.27;5.13;;;6.50;62.00;;;4.77;58.22;101187.72;10237294;28;96588;-78
2022/03/26 01:34:08;;;;;;;11.10;4.63;;;6.50;62.20;;;4.72;57.97;101179.31;10259125;28;98196;-77
2022/03/26 01:39:11;;;;;;;8.67;4.13;;;6.40;61.20;;;4.66;58.67;101175.31;10234090;28;96495;-78
2022/03/26 01:44:15;;;;;;;8.00;4.00;;;6.30;61.10;;;4.54;58.41;101177.00;10273696;28;96662;-77
2022/03/26 01:49:18;;;;;;;14.07;5.47;;;6.30;61.40;;;4.40;59.12;101177.09;10281322;28;96514;-77
2022/03/26 01:54:21;;;;;;;12.47;4.80;;;6.10;62.30;;;4.27;58.69;101173.63;10261992;28;96701;-77
2022/03/26 01:59:26;;;;;;;12.60;4.87;;;6.00;62.40;;;4.15;59.73;101179.72;10257616;28;97619;-77
2022/03/26 02:04:29;;;;;;;8.73;4.27;;;5.90;63.00;;;4.06;60.38;101175.03;10273442;28;97590;-77
2022/03/26 02:09:35;;;;;;;8.43;4.37;;;5.80;64.00;;;3.96;60.65;101167.78;10264188;28;96510;-78
2022/03/26 02:14:38;;;;;;;7.67;3.60;;;5.70;63.80;;;3.88;61.33;101167.44;10259091;28;96839;-77
2022/03/26 02:19:41;;;;;;;11.07;4.80;;;5.60;65.20;;;3.83;61.69;101174.78;10267912;28;96589;-78
2022/03/26 02:24:44;;;;;;;11.77;4.90;;;5.60;65.80;;;3.79;61.46;101172.47;10243647;28;97141;-77
2022/03/26 02:29:47;;;;;;;9.97;4.67;;;5.50;64.80;;;3.73;61.76;101174.53;10279834;28;96775;-78
2022/03/26 02:34:52;;;;;;;11.17;5.70;;;5.50;65.30;;;3.68;62.54;101167.91;10231512;28;96665;-78
2022/03/26 02:40:07;;;;;;;12.10;3.80;;;5.40;66.90;;;3.66;62.95;101170.63;10219054;28;97983;-77
2022/03/26 02:45:10;;;;;;;7.87;4.03;;;5.30;66.60;;;3.62;63.16;101168.31;10225032;28;96518;-78
2022/03/26 02:50:13;;;;;;;11.73;5.40;;;5.30;67.40;;;3.59;62.80;101171.94;10270506;28;98160;-77
2022/03/26 02:55:17;;;;;;;7.70;4.17;;;5.30;66.70;;;3.56;63.00;101173.94;10239148;28;96510;-77
2022/03/26 03:00:20;;;;;;;17.20;6.77;;;5.20;67.40;;;3.49;63.63;101169.09;10226532;28;96571;-78
2022/03/26 03:05:23;;;;;;;16.87;6.00;;;5.20;68.50;;;3.47;64.58;101168.31;10248367;28;96561;-79
2022/03/26 03:10:27;;;;;;;13.47;4.97;;;5.10;69.50;;;3.43;64.10;101161.59;10256224;28;96578;-79
2022/03/26 03:15:30;;;;;;;10.80;5.10;;;5.10;69.00;;;3.37;64.06;101161.16;10239416;28;96711;-77
2022/03/26 03:20:33;;;;;;;13.27;5.73;;;5.10;69.00;;;3.29;64.34;101159.00;10224880;28;96711;-78
2022/03/26 03:25:36;;;;;;;12.57;5.47;;;5.00;69.60;;;3.21;64.56;101153.41;10227425;28;96546;-78
2022/03/26 03:30:39;;;;;;;8.07;3.93;;;4.90;71.00;;;3.19;65.75;101163.16;10289865;28;97130;-78
2022/03/26 03:35:42;;;;;;;9.07;3.70;;;4.90;71.80;;;3.19;65.67;101157.91;10307370;28;96595;-78
2022/03/26 03:40:45;;;;;;;12.97;4.60;;;4.90;71.60;;;3.14;65.76;101157.34;10314544;28;96684;-77
2022/03/26 03:45:48;;;;;;;10.97;4.60;;;4.80;72.00;;;3.09;65.38;101151.56;10346290;28;96749;-77
2022/03/26 03:50:52;;;;;;;9.57;3.40;;;4.80;71.30;;;3.01;65.93;101149.41;10300637;28;96824;-78
2022/03/26 03:55:55;;;;;;;8.03;3.70;;;4.70;72.20;;;2.98;66.42;101151.38;10302691;28;96534;-78
2022/03/26 04:00:57;;;;;;;7.73;3.57;;;4.70;73.40;;;2.97;66.73;101154.94;10303542;28;96526;-78
2022/03/26 04:06:01;;;;;;;8.00;3.10;;;4.70;74.50;;;2.97;66.79;101152.31;10309774;28;96958;-78
2022/03/26 04:11:04;;;;;;;8.60;3.73;;;4.70;75.30;;;2.97;66.91;101157.56;10333023;28;98146;-78
2022/03/26 04:16:07;;;;;;;7.23;3.53;;;4.70;73.90;;;2.89;66.45;101161.53;10313664;28;96526;-78
2022/03/26 04:21:10;;;;;;;11.83;3.57;;;4.60;74.10;;;2.84;67.10;101162.75;10299123;28;96535;-78
2022/03/26 04:26:14;;;;;;;7.30;3.43;;;4.60;75.50;;;2.78;67.42;101161.34;10315052;28;96468;-78
2022/03/26 04:31:17;;;;;;;7.60;3.57;;;4.50;75.70;;;2.74;68.20;101156.38;10286032;28;96487;-78
2022/03/26 04:36:21;;;;;;;10.43;4.73;;;4.50;77.00;;;2.70;67.87;101168.84;10309050;28;96690;-79
2022/03/26 04:41:24;;;;;;;9.53;3.40;;;4.40;76.90;;;2.63;67.29;101170.13;10298419;28;96576;-79
2022/03/26 04:46:27;;;;;;;8.87;5.30;;;4.40;76.00;;;2.57;67.67;101173.97;10320066;28;96652;-79
2022/03/26 04:51:30;;;;;;;12.77;4.40;;;4.30;77.40;;;2.58;68.42;101164.31;10318099;28;96599;-78
2022/03/26 04:56:33;;;;;;;7.37;3.57;;;4.30;80.10;;;2.62;68.71;101169.28;10335467;28;96868;-78
2022/03/26 05:01:36;;;;;;;20.17;7.87;;;4.30;80.40;;;2.66;68.52;101175.22;10310770;28;96735;-78
2022/03/26 05:06:39;;;;;;;13.70;6.23;;;4.30;79.90;;;2.71;68.97;101173.16;10275889;28;97734;-78
2022/03/26 05:11:42;;;;;;;17.07;5.73;;;4.40;82.90;;;2.77;68.91;101185.06;10291061;28;96453;-78
2022/03/26 05:16:45;;;;;;;15.47;6.70;;;4.50;82.10;;;2.82;68.74;101182.97;10293283;28;96508;-78
2022/03/26 05:21:48;;;;;;;10.83;5.10;;;4.50;81.90;;;2.86;68.45;101187.94;10295160;28;96486;-78
2022/03/26 05:26:51;;;;;;;16.50;5.03;;;4.50;82.00;;;2.95;68.30;101197.91;10331959;28;96687;-77
2022/03/26 05:31:54;;;;;;;12.27;4.33;;;4.60;81.50;;;3.06;68.42;101194.63;10275000;28;98532;-78
2022/03/26 05:36:57;;;;;;;9.97;4.00;;;4.70;82.60;;;3.25;68.69;101193.47;10272102;28;96515;-78
2022/03/26 05:42:00;;;;;;;15.50;5.07;;;4.80;83.50;;;3.47;69.00;101204.28;10218838;28;96671;-78
2022/03/26 05:47:04;;;;;;;10.67;4.40;;;5.00;84.70;;;3.71;68.90;101201.84;10238764;28;96589;-77
2022/03/26 05:52:08;;;;;;;11.00;4.63;;;5.20;83.30;;;3.99;67.99;101208.81;10288954;28;96879;-78
2022/03/26 05:57:11;;;;;;;12.77;4.03;;;5.40;83.80;;;4.27;67.73;101199.94;10248534;28;96583;-77
2022/03/26 06:02:15;;;;;;;12.30;4.40;;;5.60;84.20;;;4.57;67.48;101204.91;10260068;28;96920;-79
2022/03/26 06:07:18;;;;;;;44.13;12.77;;;5.80;83.80;;;4.81;66.62;101197.13;10241052;28;96842;-77
2022/03/26 06:12:21;;;;;;;26.87;10.43;;;6.10;83.10;;;5.05;65.63;101213.00;10268719;28;96703;-78
2022/03/26 06:17:24;;;;;;;13.83;5.80;;;6.30;82.20;;;5.31;65.09;101205.88;10255962;28;97118;-78
2022/03/26 06:22:28;;;;;;;13.67;5.57;;;6.60;81.90;;;5.53;64.58;101208.66;10254101;28;96877;-77
2022/03/26 06:27:31;;;;;;;12.00;5.73;;;6.80;80.70;;;5.82;63.38;101203.06;10262905;28;96593;-79
2022/03/26 06:32:35;;;;;;;8.40;4.47;;;7.10;80.10;;;6.09;62.61;101208.97;10236251;28;96718;-77
2022/03/26 06:37:38;;;;;;;14.37;6.10;;;7.30;79.40;;;6.36;61.85;101207.88;10249219;28;97589;-80
2022/03/26 06:42:41;;;;;;;15.47;6.23;;;7.60;78.50;;;6.61;61.23;101215.59;10288300;28;96624;-79
2022/03/26 06:47:49;;;;;;;12.37;5.17;;;7.80;77.90;;;6.88;60.35;101217.06;10248343;28;97823;-78
2022/03/26 06:52:52;;;;;;;11.27;5.97;;;8.10;76.70;;;7.12;59.37;101219.59;10241190;28;96487;-78
2022/03/26 06:57:55;;;;;;;17.27;5.43;;;8.30;75.80;;;7.39;58.47;101217.41;10248317;28;96780;-79
2022/03/26 07:02:58;;;;;;;20.83;5.07;;;8.60;74.70;;;7.71;57.04;101227.19;10249427;28;96628;-79
2022/03/26 07:08:03;;;;;;;16.03;5.13;;;8.90;73.70;;;8.00;56.45;101223.00;10247970;28;96869;-78
2022/03/26 07:13:06;;;;;;;9.23;4.60;;;9.10;72.60;;;8.30;56.24;101216.97;10262085;28;97844;-79
2022/03/26 07:18:11;;;;;;;16.97;5.20;;;9.50;72.00;;;8.57;55.19;101210.34;10262373;28;96800;-77
2022/03/26 07:23:14;;;;;;;13.17;6.40;;;9.70;70.90;;;8.85;54.91;101212.31;10240974;28;98635;-78
2022/03/26 07:28:17;;;;;;;11.57;6.13;;;10.00;70.20;;;9.12;53.50;101218.88;10244465;28;97037;-78
2022/03/26 07:33:20;;;;;;;12.83;5.43;;;10.30;69.10;;;9.44;53.20;101217.88;10256825;28;96657;-77
2022/03/26 07:38:23;;;;;;;14.53;5.77;;;10.60;68.70;;;9.76;52.55;101207.84;10288839;28;96645;-79
2022/03/26 07:43:26;;;;;;;8.67;4.43;;;10.90;67.90;;;10.09;51.34;101203.13;10279255;28;97164;-79
2022/03/26 07:48:29;;;;;;;14.87;6.33;;;11.20;66.60;;;10.40;50.47;101202.03;10249940;28;97385;-78
2022/03/26 07:53:32;;;;;;;12.80;4.77;;;11.50;65.70;;;10.76;50.17;101207.53;10272700;28;96681;-78
2022/03/26 07:58:35;;;;;;;10.73;4.90;;;11.90;65.30;;;11.27;49.38;101190.25;10239304;28;96634;-79
2022/03/26 08:03:38;;;;;;;16.10;6.07;;;12.50;65.00;;;12.14;47.89;101183.50;10247369;28;96661;-79
2022/03/26 08:08:41;;;;;;;11.73;5.93;;;13.20;64.20;;;13.29;44.17;101183.22;10263277;28;96725;-79
2022/03/26 08:13:45;;;;;;;21.38;7.63;;;14.00;62.50;;;14.22;41.89;101177.69;10269337;28;97346;-79
2022/03/26 08:18:47;;;;;;;13.98;8.02;;;14.90;60.50;;;14.77;39.83;101168.94;10252765;28;96591;-79
2022/03/26 08:23:53;;;;;;;14.88;7.85;;;15.60;58.20;;;15.67;38.79;101177.44;10246547;28;96641;-79
2022/03/26 08:28:59;;;;;;;21.60;7.53;;;16.40;57.10;;;16.52;37.04;101170.03;10262267;28;98482;-79
2022/03/26 08:34:02;;;;;;;12.35;6.75;;;17.20;55.10;;;17.21;35.18;101163.56;10246555;28;98262;-79
2022/03/26 08:39:06;;;;;;;12.93;6.28;;;17.80;53.30;;;17.77;34.07;101174.56;10236818;28;96577;-78
2022/03/26 08:44:08;;;;;;;10.75;6.75;;;18.40;51.70;;;18.20;32.88;101167.31;10240885;28;96543;-80
2022/03/26 08:49:11;;;;;;;13.07;6.63;;;18.80;50.30;;;18.83;32.44;101159.28;10242166;28;98240;-80
2022/03/26 08:54:14;;;;;;;11.88;7.18;;;19.40;49.60;;;19.72;31.21;101161.94;10253593;28;96964;-80
2022/03/26 08:59:17;;;;;;;10.50;6.43;;;20.10;48.50;;;20.63;29.62;101151.41;10265410;28;96637;-78
2022/03/26 09:04:21;;;;;;;11.05;5.93;;;20.70;47.50;;;20.97;28.47;101144.84;10252297;28;96720;-81
2022/03/26 09:09:24;;;;;;;13.32;6.28;;;21.20;45.90;;;20.80;27.63;101136.38;10252885;28;96586;-79
2022/03/26 09:14:27;;;;;;;11.25;6.57;;;21.40;44.30;;;21.19;27.44;101134.59;10250852;28;96575;-80
2022/03/26 09:19:30;;;;;;;8.65;5.93;;;21.70;43.70;;;21.54;27.18;101131.53;10258438;28;97894;-80
2022/03/26 09:24:33;;;;;;;10.85;6.05;;;21.80;43.20;;;21.89;26.30;101134.59;10251387;28;96604;-80
2022/03/26 09:29:36;;;;;;;11.70;7.05;;;22.10;42.40;;;21.56;26.13;101129.41;10258478;28;97100;-79
2022/03/26 09:34:40;;;;;;;13.13;7.18;;;22.20;41.00;;;21.73;25.79;101127.03;10235672;28;97024;-80
2022/03/26 09:39:43;;;;;;;9.07;6.15;;;22.30;41.00;;;21.85;25.85;101125.28;10294739;28;96484;-79
2022/03/26 09:44:50;;;;;;;8.48;5.70;;;22.50;40.40;;;22.57;24.84;101112.16;10264970;28;96661;-80
2022/03/26 09:49:53;;;;;;;9.82;4.90;;;23.00;40.20;;;23.39;23.43;101108.03;10250481;28;96602;-81
2022/03/26 09:54:57;;;;;;;7.70;4.60;;;23.70;39.40;;;23.96;22.53;101092.13;10241685;28;96633;-79
2022/03/26 10:00:00;;;;;;;9.20;4.90;;;24.20;38.00;;;24.41;20.73;101088.03;10234956;28;96529;-80
2022/03/26 10:05:08;;;;;;;8.73;4.40;;;24.80;36.70;;;24.67;20.46;101087.53;10241005;28;98284;-80
2022/03/26 10:10:22;;;;;;;6.82;3.47;;;24.90;35.90;;;24.64;18.74;101081.72;10252295;28;96537;-80
2022/03/26 10:15:25;;;;;;;6.13;3.90;;;24.90;32.60;;;23.72;18.70;101083.13;10265722;28;96711;-80
2022/03/26 10:20:28;;;;;;;7.32;3.58;;;24.30;32.40;;;23.52;18.88;101077.19;10279992;28;96447;-80
2022/03/26 10:25:32;;;;;;;5.68;3.60;;;23.90;32.40;;;23.96;18.88;101069.59;10289361;28;98468;-81
2022/03/26 10:36:00;;;;;;;7.22;3.78;;;24.60;32.30;;;24.65;17.79;101059.78;10243518;28;96612;-80
2022/03/26 10:41:07;;;;;;;6.38;3.90;;;24.90;31.50;;;24.82;17.12;101048.94;10255266;28;96576;-80
2022/03/26 10:46:10;;;;;;;9.02;4.63;;;25.10;31.40;;;24.92;17.23;101037.47;10274909;28;96531;-80
2022/03/26 10:51:15;;;;;;;7.55;4.85;;;25.40;31.00;;;25.00;16.94;101031.63;10263231;28;96545;-81
2022/03/26 10:56:18;;;;;;;8.32;4.47;;;25.50;30.40;;;25.03;16.42;101036.59;10283124;28;96502;-81
2022/03/26 11:01:21;;;;;;;9.80;4.90;;;25.40;30.00;;;24.88;16.73;101030.84;10237957;28;96939;-79
2022/03/26 11:06:26;;;;;;;9.35;4.68;;;25.30;29.80;;;25.33;16.16;101022.75;10244339;28;97686;-80
2022/03/26 11:11:29;;;;;;;8.85;5.03;;;25.70;29.80;;;25.44;15.27;101030.03;10269978;28;96704;-79
2022/03/26 11:16:41;;;;;;;7.93;5.05;;;26.00;28.90;;;25.03;14.53;101025.72;10244818;28;97269;-79
2022/03/26 11:22:13;;;;;;;14.20;7.03;;;25.80;27.80;;;24.85;13.88;101026.75;10259924;28;97453;-79
2022/03/26 11:28:02;;;;;;;11.43;7.00;;;25.70;27.20;;;24.47;13.85;101011.00;10253386;28;97474;-79
2022/03/26 11:33:11;;;;;;;13.88;7.05;;;25.40;26.90;;;24.28;14.66;101013.84;10230057;28;96729;-80
2022/03/26 11:38:14;;;;;;;;;;;25.10;27.20;;;24.28;14.35;101002.97;10250093;28;97455;-79
2022/03/26 11:43:39;;;;;;;11.93;7.38;;;25.00;26.80;;;24.48;15.46;100999.91;10277369;28;97102;-79
2022/03/26 11:54:07;;;;;;;13.52;8.77;;;25.10;28.30;;;24.69;15.85;100976.69;10269640;28;96626;-80
2022/03/26 11:59:16;;;;;;;13.90;9.70;;;25.30;28.50;;;24.70;16.72;100983.75;10260801;28;96709;-80
2022/03/26 12:04:28;;;;;;;14.02;8.93;;;25.30;28.90;;;24.48;16.57;100970.03;10265435;28;96570;-80
2022/03/26 12:09:32;;;;;;;15.60;8.85;;;25.20;28.90;;;24.33;16.37;100966.13;10240034;28;96630;-80
2022/03/26 12:15:05;;;;;;;16.23;8.80;;;25.10;28.80;;;24.09;16.03;100957.22;10285620;28;96611;-80
2022/03/26 12:20:44;;;;;;;15.20;8.90;;;24.90;28.30;;;23.72;16.72;100966.47;10240084;28;96932;-80
2022/03/26 12:25:50;;;;;;;13.38;8.80;;;24.70;28.90;;;23.67;15.34;100958.19;10236899;28;96431;-81
2022/03/26 12:30:57;;;;;;;15.65;8.73;;;24.60;28.00;;;23.57;15.70;100946.25;10286264;28;98404;-80
2022/03/26 12:36:05;;;;;;;11.70;8.48;;;24.70;28.50;;;23.29;15.94;100939.63;10316345;28;96618;-80
2022/03/26 12:41:08;;;;;;;17.98;9.60;;;24.50;28.00;;;23.46;16.88;100931.63;10317953;28;97062;-81
2022/03/26 12:46:13;;;;;;;15.57;9.88;;;24.50;28.40;;;23.48;16.15;100929.50;10294197;28;96648;-80
2022/03/26 12:51:16;;;;;;;19.15;9.38;;;24.70;28.40;;;23.59;16.36;100917.81;10292321;28;96450;-80
2022/03/26 12:56:21;;;;;;;14.35;9.52;;;24.70;28.30;;;23.37;17.42;100919.47;10300961;28;97049;-81
2022/03/26 13:01:25;;;;;;;14.68;8.75;;;24.30;28.80;;;23.24;16.25;100912.38;10312393;28;96683;-81
2022/03/26 13:06:28;;;;;;;14.77;9.57;;;24.20;28.30;;;23.16;16.30;100905.44;10275472;28;96504;-81
2022/03/26 13:11:34;;;;;;;14.55;9.48;;;24.20;28.40;;;23.11;16.79;100902.59;10291408;28;96573;-82
2022/03/26 13:16:37;;;;;;;13.93;8.43;;;24.20;28.40;;;23.21;17.04;100877.59;10309039;28;96718;-81
2022/03/26 13:21:51;;;;;;;15.30;9.85;;;24.30;28.70;;;22.65;17.53;100889.72;10319180;28;96696;-81
2022/03/26 13:27:03;;;;;;;17.80;11.02;;;23.80;29.00;;;22.31;17.30;100873.13;10309223;28;96732;-81
2022/03/26 13:32:11;;;;;;;17.25;10.32;;;23.60;28.80;;;22.25;17.75;100873.19;10233912;28;96583;-81
2022/03/26 13:37:18;;;;;;;18.67;10.27;;;23.50;29.00;;;22.42;17.74;100866.06;10270011;28;97135;-80
2022/03/26 13:42:23;;;;;;;18.95;10.38;;;23.70;29.20;;;22.39;17.28;100863.84;10258142;28;96704;-80
2022/03/26 13:47:34;;;;;;;20.30;10.35;;;23.60;28.80;;;22.08;17.55;100871.09;10252528;28;96837;-80
2022/03/26 13:52:40;;;;;;;18.02;10.77;;;23.30;28.80;;;21.67;17.64;100855.53;10256304;28;97115;-80
2022/03/26 13:57:48;;;;;;;19.48;10.90;;;22.90;29.10;;;21.84;18.32;100861.19;10265827;28;96553;-80
2022/03/26 14:02:52;;;;;;;22.63;11.35;;;23.00;29.30;;;21.82;17.84;100849.75;10255237;28;96526;-80
2022/03/26 14:08:04;;;;;;;18.17;10.57;;;23.00;29.00;;;21.72;17.19;100849.47;10252792;28;96537;-79
2022/03/26 14:13:10;;;;;;;15.68;9.75;;;22.90;28.50;;;21.44;17.11;100837.25;10249657;28;97076;-80
2022/03/26 14:18:13;;;;;;;19.38;9.20;;;22.60;28.60;;;21.48;17.08;100846.59;10260050;28;96688;-81
2022/03/26 14:23:16;;;;;;;19.65;10.80;;;22.50;28.70;;;21.50;17.04;100847.19;10263712;28;96603;-82
2022/03/26 14:28:20;;;;;;;21.83;10.73;;;22.60;28.50;;;21.52;18.02;100834.25;10272350;28;96640;-81
2022/03/26 14:33:24;;;;;;;18.45;9.77;;;22.70;28.80;;;21.61;17.62;100830.22;10256758;28;96580;-81
2022/03/26 14:38:27;;;;;;;19.50;10.27;;;22.80;28.90;;;21.64;17.88;100834.34;10277232;28;96778;-81
2022/03/26 14:43:32;;;;;;;21.98;12.13;;;22.80;28.80;;;21.60;17.03;100817.75;10234840;28;97341;-80
2022/03/26 14:48:36;;;;;;;19.63;10.65;;;22.70;28.70;;;21.45;17.33;100817.28;10250583;28;98444;-81
2022/03/26 14:53:38;;;;;;;21.60;10.25;;;22.60;28.70;;;21.43;17.80;100814.00;10251025;28;96675;-81
2022/03/26 14:58:41;;;;;;;19.92;11.27;;;22.50;29.10;;;21.36;18.33;100819.47;10230955;28;96541;-81
2022/03/26 15:03:44;;;;;;;21.48;11.00;;;22.50;29.30;;;21.30;18.19;100814.13;10240307;28;97770;-80
2022/03/26 15:08:47;;;;;;;19.00;10.23;;;22.30;29.10;;;21.13;18.24;100804.91;10242742;28;96737;-80
2022/03/26 15:13:50;;;;;;;21.15;12.10;;;22.20;29.30;;;20.83;18.45;100805.59;10217461;28;98418;-81
2022/03/26 15:18:53;;;;;;;19.60;10.85;;;21.90;29.70;;;20.70;19.05;100806.53;10249171;28;96503;-81
2022/03/26 15:23:56;;;;;;;20.42;10.18;;;21.70;29.90;;;20.61;18.32;100804.31;10277482;28;96569;-81
2022/03/26 15:29:00;;;;;;;20.88;10.80;;;21.60;29.70;;;20.43;18.80;100811.25;10252148;28;96977;-81
2022/03/26 15:34:05;;;;;;;18.67;10.60;;;21.40;29.90;;;20.31;19.30;100818.38;10260194;28;97023;-81
2022/03/26 15:39:08;;;;;;;19.15;10.73;;;21.20;30.00;;;20.09;19.51;100820.59;10256288;28;96697;-81
2022/03/26 15:44:11;;;;;;;19.40;11.38;;;21.10;30.20;;;19.82;20.06;100824.44;10244888;28;97061;-81
2022/03/26 15:49:14;;;;;;;19.35;10.30;;;20.80;30.50;;;19.61;19.80;100826.38;10245568;28;96611;-81
2022/03/26 15:54:17;;;;;;;20.27;10.82;;;20.70;30.50;;;19.29;20.15;100830.75;10284368;28;98159;-81
2022/03/26 15:59:20;;;;;;;18.35;11.10;;;20.40;30.70;;;18.93;20.30;100841.97;10248620;28;98504;-81
2022/03/26 16:04:23;;;;;;;18.50;10.43;;;20.00;31.00;;;18.53;20.39;100847.28;10260651;28;96755;-81
2022/03/26 16:09:26;;;;;;;17.25;10.35;;;19.70;31.10;;;18.05;20.70;100847.38;10259709;28;96882;-81
2022/03/26 16:14:29;;;;;;;19.98;9.93;;;19.20;30.90;;;17.61;20.85;100853.94;10261220;28;98537;-80
2022/03/26 16:19:32;;;;;;;17.02;9.35;;;18.80;31.40;;;17.23;21.20;100852.66;10254709;28;96590;-79
2022/03/26 16:24:35;;;;;;;17.38;8.52;;;18.40;31.60;;;16.92;21.09;100853.03;10235298;28;96548;-81
2022/03/26 16:29:38;;;;;;;16.55;9.43;;;18.10;31.50;;;16.64;21.66;100856.44;10278303;28;96684;-80
2022/03/26 16:34:41;;;;;;;56.95;34.03;;;17.80;31.90;;;16.36;22.04;100847.47;10261964;28;96557;-80
2022/03/26 16:39:44;;;;;;;18.98;10.18;;;17.60;32.10;;;16.09;22.45;100857.91;10253950;28;96890;-79
2022/03/26 16:44:48;;;;;;;15.98;9.00;;;17.30;32.60;;;15.92;22.77;100854.59;10259486;28;96753;-80
2022/03/26 16:49:51;;;;;;;16.73;8.95;;;17.10;33.00;;;15.74;23.38;100862.19;10267143;28;96588;-80
2022/03/26 16:54:54;;;;;;;19.05;8.15;;;16.90;33.40;;;15.51;23.75;100856.88;10228709;28;98624;-80
2022/03/26 16:59:57;;;;;;;16.15;8.60;;;16.80;33.40;;;15.23;24.09;100852.16;10275411;28;97015;-80
2022/03/26 17:05:00;;;;;;;14.57;8.03;;;16.50;33.90;;;15.01;24.45;100863.75;10256073;28;96680;-80
2022/03/26 17:10:07;;;;;;;15.38;8.20;;;16.30;34.00;;;14.83;24.73;100855.19;10238811;28;98591;-80
2022/03/26 17:15:11;;;;;;;18.70;9.83;;;16.10;34.20;;;14.65;25.10;100856.34;10254045;28;98201;-80
2022/03/26 17:20:14;;;;;;;22.33;10.40;;;15.90;34.40;;;14.49;25.39;100861.78;10235693;28;96469;-80
2022/03/26 17:25:17;;;;;;;15.57;8.13;;;15.80;34.80;;;14.27;25.54;100866.03;10272396;28;96630;-80
2022/03/26 17:30:20;;;;;;;16.57;7.97;;;15.60;34.80;;;14.03;25.88;100863.50;10234149;28;97296;-79
2022/03/26 17:35:24;;;;;;;13.60;7.10;;;15.40;35.00;;;13.77;26.33;100869.13;10267747;28;96774;-79
2022/03/26 17:40:27;;;;;;;17.50;7.40;;;15.20;35.30;;;13.59;26.59;100862.16;10262493;28;96996;-81
2022/03/26 17:45:30;;;;;;;14.90;7.50;;;15.00;35.50;;;13.38;27.23;100864.56;10260824;28;96563;-81
2022/03/26 17:50:35;;;;;;;15.40;7.90;;;14.80;35.80;;;13.23;27.71;100860.91;10250843;28;96431;-81
2022/03/26 17:55:37;;;;;;;18.40;9.30;;;14.60;36.50;;;13.23;28.25;100860.91;10279203;28;96629;-80
2022/03/26 18:00:42;;;;;;;31.70;14.53;;;14.50;37.20;;;13.34;28.36;100863.22;10240900;28;96612;-80
2022/03/26 18:05:45;;;;;;;14.60;8.80;;;14.60;37.70;;;13.41;27.94;100882.91;10262770;28;98205;-79
2022/03/26 18:10:50;;;;;;;22.23;9.07;;;14.60;37.70;;;13.42;28.04;100891.75;10267553;28;96606;-80
2022/03/26 18:15:53;;;;;;;14.40;7.93;;;14.60;37.70;;;13.32;28.62;100891.94;10252508;28;96584;-80
2022/03/26 18:20:56;;;;;;;16.83;8.20;;;14.60;37.60;;;13.21;28.44;100902.97;10248014;28;96666;-80
2022/03/26 18:26:00;;;;;;;16.30;7.90;;;14.50;37.70;;;13.10;28.48;100909.44;10252070;28;96740;-80
2022/03/26 18:31:03;;;;;;;14.90;7.20;;;14.40;37.80;;;12.99;28.71;100909.75;10280189;28;96504;-80
2022/03/26 18:36:07;;;;;;;13.73;7.57;;;14.30;37.90;;;12.85;29.15;100916.59;10318455;28;98189;-80
2022/03/26 18:41:10;;;;;;;19.03;7.73;;;14.20;38.10;;;12.71;29.42;100920.72;10299241;28;96899;-81
2022/03/26 18:46:13;;;;;;;15.77;7.30;;;14.10;38.30;;;12.63;29.61;100914.53;10313512;28;96699;-81
2022/03/26 18:51:16;;;;;;;13.43;7.07;;;14.00;38.50;;;12.60;30.00;100918.38;10307978;28;96681;-81
2022/03/26 18:56:20;;;;;;;14.83;7.57;;;13.90;38.60;;;12.52;30.21;100916.50;10316223;28;98104;-81
2022/03/26 19:01:23;;;;;;;14.37;6.57;;;13.80;38.80;;;12.46;30.24;100914.50;10308189;28;96524;-79
2022/03/26 19:06:26;;;;;;;18.37;7.93;;;13.80;39.00;;;12.32;30.54;100921.28;10321846;28;96713;-79
2022/03/26 19:11:29;;;;;;;17.77;8.63;;;13.70;38.90;;;12.23;30.98;100916.91;10295502;28;96866;-81
2022/03/26 19:16:32;;;;;;;16.60;7.77;;;13.60;39.20;;;12.18;31.07;100921.09;10311943;28;96687;-79
2022/03/26 19:21:35;;;;;;;16.00;7.70;;;13.50;39.30;;;12.10;31.13;100915.72;10295155;28;97565;-79
2022/03/26 19:26:38;;;;;;;15.10;8.13;;;13.40;39.40;;;11.96;31.24;100920.66;10286724;28;96813;-80
2022/03/26 19:31:41;;;;;;;16.23;8.50;;;13.40;39.70;;;11.80;31.64;100916.03;10316726;28;96545;-80
2022/03/26 19:36:44;;;;;;;16.27;7.53;;;13.20;39.80;;;11.67;31.99;100920.13;10299452;28;97445;-80
2022/03/26 19:41:48;;;;;;;15.37;7.30;;;13.10;40.20;;;11.56;32.12;100912.41;10312835;28;96863;-80
2022/03/26 19:46:51;;;;;;;19.27;8.53;;;13.00;40.30;;;11.46;32.25;100918.69;10318532;28;96740;-80
2022/03/26 19:51:54;;;;;;;21.97;8.33;;;12.90;40.60;;;11.35;32.72;100910.94;10312502;28;96760;-78
2022/03/26 19:57:02;;;;;;;23.57;8.43;;;12.80;40.40;;;11.22;33.05;100914.00;10306855;28;96983;-78
2022/03/26 20:02:06;;;;;;;16.60;8.30;;;12.70;40.70;;;11.11;33.60;100924.06;10293876;28;96603;-79
2022/03/26 20:07:09;;;;;;;16.87;8.23;;;12.60;41.30;;;10.96;33.85;100918.44;10326414;28;96956;-79
2022/03/26 20:12:13;;;;;;;13.73;8.13;;;12.40;41.60;;;10.83;34.21;100921.47;10309969;28;96599;-81
2022/03/26 20:22:38;;;;;;;14.23;6.28;;;12.20;41.90;;;10.60;34.77;100938.84;10312793;28;98338;-80
2022/03/26 20:27:41;;;;;;;17.30;6.90;;;12.10;42.70;;;10.45;35.29;100944.69;10296355;28;97032;-79
2022/03/26 20:32:44;;;;;;;19.30;8.30;;;12.00;42.40;;;10.26;36.00;100954.59;10266165;28;96537;-79
2022/03/26 20:37:47;;;;;;;15.63;7.67;;;11.90;43.20;;;10.05;36.88;100952.94;10290658;28;96813;-81
2022/03/26 20:42:51;;;;;;;16.37;6.73;;;11.70;43.70;;;9.99;37.17;100955.34;10269322;28;96713;-81
2022/03/26 20:47:56;;;;;;;15.50;6.90;;;11.50;44.20;;;10.17;37.22;100958.91;10249110;28;96546;-80
2022/03/26 20:53:01;;;;;;;15.90;7.40;;;11.50;44.40;;;10.36;37.05;100953.53;10249541;28;96739;-80
2022/03/26 20:58:04;;;;;;;15.57;6.70;;;11.70;44.60;;;10.53;36.65;100951.91;10256680;28;98007;-80
2022/03/26 21:03:07;;;;;;;17.17;6.83;;;11.80;44.60;;;10.63;37.28;100957.16;10266775;28;96597;-80
2022/03/26 21:08:11;;;;;;;15.17;7.23;;;11.90;44.80;;;10.76;37.03;100952.31;10250738;28;96595;-79